Terminal Aerodrome Forecast
Issued by NWS

Home | Current Version | Previous Version | Graphics & Text | Print | Product List | Glossary On
Versions: 1 2 3 4 5 6 7 8 9 10 11 12 13 14
000
FTUS45 KGGW 262320
TAFOLF
TAF
KOLF 262320Z 2700/2724 30012KT P6SM VCSH BKN080
     FM270200 30006KT P6SM SCT090
     FM271600 30011KT P6SM SCT110
     FM271800 30015G23KT P6SM BKN090=

USA.gov is the U.S. government's official web portal to all federal, state and local government web resources and services.